Time;durP1;ratioP1;P1;durP2;ratioP2;P2;SDS_P1;SDS_P2;PMS_P1;PMS_P2;Temp;Humidity;BMP_temperature;BMP_pressure;BME280_temperature;BME280_humidity;BME280_pressure;Samples;Min_cycle;Max_cycle;Signal;HPM_P1;HPM_P2
2021/03/14 00:00:39;;;;;;;2.43;2.17;;;4.40;99.90;;;;;;5128267;28;20435;-71
2021/03/14 00:03:12;;;;;;;4.10;1.53;;;4.30;99.90;;;;;;5123882;28;20462;-68
2021/03/14 00:05:41;;;;;;;1.13;0.93;;;4.30;99.90;;;;;;5120939;28;20443;-68
2021/03/14 00:08:11;;;;;;;1.23;0.70;;;4.10;99.90;;;;;;5099976;28;20471;-68
2021/03/14 00:10:40;;;;;;;1.63;1.17;;;4.20;99.90;;;;;;5118879;28;20526;-67
2021/03/14 00:13:13;;;;;;;4.47;1.37;;;4.10;99.90;;;;;;5083071;28;20456;-70
2021/03/14 00:15:41;;;;;;;3.83;1.00;;;4.20;99.90;;;;;;5116245;28;20470;-68
2021/03/14 00:18:10;;;;;;;4.97;2.67;;;4.10;99.90;;;;;;5117808;28;20501;-68
2021/03/14 00:23:33;;;;;;;0.90;0.77;;;4.10;99.90;;;;;;5117435;28;20464;-68
2021/03/14 00:26:03;;;;;;;2.33;1.10;;;4.10;99.90;;;;;;5116943;28;20440;-68
2021/03/14 00:28:30;;;;;;;3.87;1.10;;;4.10;99.90;;;;;;5099430;28;20481;-68
2021/03/14 00:30:57;;;;;;;1.07;0.97;;;4.00;99.90;;;;;;5116402;28;20540;-68
2021/03/14 00:33:26;;;;;;;1.70;1.00;;;4.00;99.90;;;;;;5117578;28;20534;-68
2021/03/14 00:35:54;;;;;;;1.00;0.90;;;4.10;99.90;;;;;;5117468;28;20442;-68
2021/03/14 00:38:22;;;;;;;0.93;0.83;;;4.10;99.90;;;;;;5098662;28;20950;-68
2021/03/14 00:40:49;;;;;;;1.53;0.90;;;4.10;99.90;;;;;;5082291;28;20489;-67
2021/03/14 00:43:19;;;;;;;0.70;0.60;;;4.00;99.90;;;;;;5117065;28;20475;-68
2021/03/14 00:45:46;;;;;;;1.80;0.83;;;4.10;99.90;;;;;;5097789;28;20558;-69
2021/03/14 00:48:33;;;;;;;0.90;0.70;;;4.20;99.90;;;;;;5081489;28;20503;-69
2021/03/14 00:51:01;;;;;;;1.13;0.90;;;4.20;99.90;;;;;;5099006;28;20534;-68
2021/03/14 00:53:37;;;;;;;1.20;0.90;;;4.20;99.90;;;;;;5099070;28;20523;-68
2021/03/14 00:56:10;;;;;;;2.07;1.00;;;4.10;99.90;;;;;;5081518;28;20424;-68
2021/03/14 00:58:39;;;;;;;1.33;1.00;;;4.00;99.90;;;;;;5099150;28;20472;-69
2021/03/14 01:01:08;;;;;;;2.40;1.80;;;4.00;99.90;;;;;;5116614;28;20472;-68
2021/03/14 01:03:40;;;;;;;1.70;0.97;;;4.00;99.90;;;;;;5106200;28;20489;-67
2021/03/14 01:06:08;;;;;;;1.23;0.93;;;4.00;99.90;;;;;;5133878;28;20421;-68
2021/03/14 01:08:37;;;;;;;0.80;0.70;;;3.90;99.90;;;;;;5103939;28;20451;-67
2021/03/14 01:11:05;;;;;;;1.80;1.63;;;4.00;99.90;;;;;;5118818;28;20470;-68
2021/03/14 01:14:07;;;;;;;1.60;0.70;;;3.80;99.90;;;;;;5083693;28;20518;-68
2021/03/14 01:16:47;;;;;;;0.90;0.80;;;3.90;99.90;;;;;;5099807;28;20471;-67
2021/03/14 01:19:18;;;;;;;0.80;0.80;;;3.80;99.90;;;;;;5099605;28;20420;-69
2021/03/14 01:21:48;;;;;;;2.40;0.90;;;3.90;99.90;;;;;;5097782;28;20428;-71
2021/03/14 01:24:15;;;;;;;2.13;1.20;;;3.90;99.90;;;;;;5097989;28;20439;-69
2021/03/14 01:26:43;;;;;;;1.50;1.33;;;3.80;99.90;;;;;;5116745;28;20527;-68
2021/03/14 01:29:12;;;;;;;1.27;1.03;;;3.80;99.90;;;;;;5097516;28;20849;-68
2021/03/14 01:31:40;;;;;;;0.93;0.80;;;3.90;99.90;;;;;;5096758;28;20958;-68
2021/03/14 01:34:08;;;;;;;1.13;0.60;;;3.90;99.90;;;;;;5116001;28;20770;-71
2021/03/14 01:36:36;;;;;;;3.90;1.27;;;3.90;99.90;;;;;;5115308;28;20481;-70
2021/03/14 01:39:05;;;;;;;1.00;0.90;;;3.90;99.90;;;;;;5116072;28;20467;-67
2021/03/14 01:41:35;;;;;;;0.93;0.70;;;3.90;99.90;;;;;;5012875;28;20459;-67
2021/03/14 01:44:03;;;;;;;1.23;1.10;;;3.90;99.90;;;;;;5013136;28;20645;-68
2021/03/14 01:46:32;;;;;;;1.73;0.77;;;3.90;99.90;;;;;;5011886;28;20502;-68
2021/03/14 01:49:14;;;;;;;0.97;0.97;;;3.90;99.90;;;;;;5087421;28;20955;-68
2021/03/14 01:51:43;;;;;;;1.80;0.90;;;4.10;99.90;;;;;;5115943;28;20446;-68
2021/03/14 01:54:11;;;;;;;1.90;1.17;;;4.10;99.90;;;;;;5115631;28;20420;-68
2021/03/14 01:56:39;;;;;;;2.10;0.93;;;4.10;99.90;;;;;;5116925;28;20431;-67
2021/03/14 01:59:07;;;;;;;1.50;0.80;;;4.10;99.90;;;;;;5116232;28;20446;-68
2021/03/14 02:01:35;;;;;;;1.47;1.00;;;4.20;99.90;;;;;;5114944;28;20520;-68
2021/03/14 02:04:03;;;;;;;2.13;1.10;;;4.20;99.90;;;;;;5097526;28;20491;-68
2021/03/14 02:06:34;;;;;;;1.27;1.17;;;4.20;99.90;;;;;;5115967;28;20488;-68
2021/03/14 02:09:29;;;;;;;1.77;1.20;;;4.20;99.90;;;;;;5101127;28;20725;-70
2021/03/14 02:12:01;;;;;;;0.90;0.90;;;4.00;99.90;;;;;;5119394;28;20434;-68
2021/03/14 02:14:30;;;;;;;2.87;0.90;;;3.90;99.90;;;;;;5119591;28;20423;-66
2021/03/14 02:17:00;;;;;;;1.57;0.80;;;3.80;99.90;;;;;;5100884;28;20467;-67
2021/03/14 02:19:40;;;;;;;2.43;1.43;;;3.70;99.90;;;;;;5118179;28;20482;-68
2021/03/14 02:22:08;;;;;;;3.03;1.20;;;3.60;99.90;;;;;;5119052;28;20922;-68
2021/03/14 02:24:45;;;;;;;1.00;0.90;;;3.60;99.90;;;;;;5101497;28;20432;-69
2021/03/14 02:27:15;;;;;;;1.97;1.00;;;3.50;99.90;;;;;;5119118;28;20540;-70
2021/03/14 02:29:43;;;;;;;3.17;0.90;;;3.40;99.90;;;;;;5101153;28;20467;-70
2021/03/14 02:32:13;;;;;;;2.03;1.43;;;3.40;99.90;;;;;;5120390;28;20478;-66
2021/03/14 02:34:45;;;;;;;1.63;1.17;;;3.40;99.90;;;;;;5102391;28;20488;-67
2021/03/14 02:37:14;;;;;;;1.20;1.00;;;3.40;99.90;;;;;;5103142;28;20995;-68
2021/03/14 02:39:43;;;;;;;2.20;1.00;;;3.40;99.90;;;;;;5102586;28;20526;-67
2021/03/14 02:42:15;;;;;;;1.50;1.03;;;3.40;99.90;;;;;;5102355;28;20435;-71
2021/03/14 02:44:48;;;;;;;1.27;1.10;;;3.40;99.90;;;;;;5123138;28;20447;-67
2021/03/14 02:47:19;;;;;;;3.37;1.00;;;3.30;99.90;;;;;;5119549;28;20470;-69
2021/03/14 02:50:01;;;;;;;0.90;0.77;;;3.40;99.90;;;;;;5118522;28;20427;-68
2021/03/14 02:52:29;;;;;;;1.97;1.20;;;3.50;99.90;;;;;;5101460;28;20497;-67
2021/03/14 02:55:00;;;;;;;2.50;1.37;;;3.70;99.90;;;;;;5120720;28;20450;-67
2021/03/14 02:57:28;;;;;;;1.77;1.30;;;3.60;99.90;;;;;;5104489;28;20497;-68
2021/03/14 02:59:57;;;;;;;1.90;1.40;;;3.60;99.90;;;;;;5104834;28;20424;-67
2021/03/14 03:02:54;;;;;;;1.73;1.63;;;3.60;99.90;;;;;;5102368;28;20476;-70
2021/03/14 03:05:23;;;;;;;2.13;1.50;;;3.80;99.90;;;;;;5101609;28;20439;-67
2021/03/14 03:07:54;;;;;;;3.23;1.37;;;3.80;99.90;;;;;;5074594;28;20477;-68
2021/03/14 03:10:25;;;;;;;1.47;1.37;;;3.70;99.90;;;;;;5078527;28;20787;-68
2021/03/14 03:12:56;;;;;;;1.50;1.30;;;3.80;99.90;;;;;;5078857;28;20968;-67
2021/03/14 03:15:25;;;;;;;3.13;1.47;;;3.80;99.90;;;;;;5078247;28;20517;-67
2021/03/14 03:17:54;;;;;;;3.03;1.37;;;3.90;99.90;;;;;;5078217;28;20529;-67
2021/03/14 03:20:25;;;;;;;1.70;1.60;;;3.90;99.90;;;;;;5078205;28;20453;-68
2021/03/14 03:22:53;;;;;;;1.00;0.93;;;4.00;99.90;;;;;;5059488;28;20481;-68
2021/03/14 03:25:22;;;;;;;0.90;0.90;;;3.80;99.90;;;;;;5079181;28;20525;-68
2021/03/14 03:27:51;;;;;;;1.43;1.17;;;3.50;99.90;;;;;;5062019;28;20434;-68
2021/03/14 03:30:20;;;;;;;1.50;1.10;;;3.20;99.90;;;;;;5061143;28;20430;-67
2021/03/14 03:32:49;;;;;;;1.40;1.20;;;3.10;99.90;;;;;;5063013;28;20433;-68
2021/03/14 03:35:21;;;;;;;1.50;1.40;;;2.90;99.90;;;;;;5063373;28;20437;-68
2021/03/14 03:37:50;;;;;;;2.43;1.50;;;2.90;99.90;;;;;;5080962;28;20928;-68
2021/03/14 03:40:23;;;;;;;2.60;1.30;;;2.90;99.90;;;;;;5062798;28;20456;-68
2021/03/14 03:42:57;;;;;;;1.23;0.90;;;2.90;99.90;;;;;;5062922;28;20473;-68
2021/03/14 03:45:26;;;;;;;1.63;1.30;;;3.00;99.90;;;;;;5062512;28;20441;-67
2021/03/14 03:47:58;;;;;;;5.77;1.43;;;3.10;99.90;;;;;;5081178;28;20429;-68
2021/03/14 03:50:48;;;;;;;1.23;1.13;;;3.10;99.90;;;;;;5050087;28;20441;-68
2021/03/14 03:53:19;;;;;;;1.70;1.30;;;3.40;99.90;;;;;;5081215;28;21035;-69
2021/03/14 03:55:47;;;;;;;1.47;1.27;;;3.50;99.90;;;;;;5080805;28;20425;-70
2021/03/14 03:58:15;;;;;;;1.53;1.43;;;3.50;99.90;;;;;;5081446;28;20445;-69
2021/03/14 04:00:45;;;;;;;2.07;1.70;;;3.60;99.90;;;;;;5059790;28;20856;-68
2021/03/14 04:03:43;;;;;;;1.70;1.60;;;3.60;99.90;;;;;;5079887;28;20484;-68
2021/03/14 04:06:12;;;;;;;1.63;1.53;;;3.70;99.90;;;;;;5077078;28;20516;-67
2021/03/14 04:08:43;;;;;;;3.87;1.60;;;3.70;99.90;;;;;;5092760;28;20472;-67
2021/03/14 04:11:15;;;;;;;1.77;1.43;;;3.70;99.90;;;;;;5098340;28;20433;-68
2021/03/14 04:13:44;;;;;;;4.67;1.80;;;3.80;99.90;;;;;;5098676;28;20441;-66
2021/03/14 04:16:14;;;;;;;1.90;1.80;;;3.90;99.90;;;;;;5068953;28;20472;-66
2021/03/14 04:18:44;;;;;;;3.70;2.30;;;3.70;99.90;;;;;;5118129;28;20439;-67
2021/03/14 04:21:15;;;;;;;2.00;1.90;;;3.70;99.90;;;;;;5099671;28;20440;-70
2021/03/14 04:23:45;;;;;;;2.03;1.83;;;3.70;99.90;;;;;;5116872;28;20459;-67
2021/03/14 04:26:15;;;;;;;2.07;1.87;;;3.80;99.90;;;;;;5100651;28;20938;-68
2021/03/14 04:28:46;;;;;;;1.73;1.63;;;3.80;99.90;;;;;;5100751;28;20841;-68
2021/03/14 04:31:13;;;;;;;2.00;1.90;;;3.80;99.90;;;;;;5105804;28;20975;-67
2021/03/14 04:33:43;;;;;;;1.70;1.60;;;3.80;99.90;;;;;;5097830;28;20433;-67
2021/03/14 04:36:37;;;;;;;3.73;2.00;;;3.90;99.90;;;;;;5078990;28;20432;-67
2021/03/14 04:39:06;;;;;;;2.23;1.80;;;3.90;99.90;;;;;;5078718;28;20854;-66
2021/03/14 04:41:34;;;;;;;3.70;1.93;;;4.00;99.90;;;;;;5096874;28;20532;-70
2021/03/14 04:44:04;;;;;;;1.90;1.73;;;4.00;99.90;;;;;;5096157;28;20467;-67
2021/03/14 04:46:33;;;;;;;2.00;1.60;;;4.00;99.90;;;;;;5091426;28;20471;-69
2021/03/14 04:49:01;;;;;;;3.10;2.20;;;4.00;99.90;;;;;;5100823;28;20477;-68
2021/03/14 04:51:36;;;;;;;1.87;1.70;;;4.00;99.90;;;;;;5119356;28;20431;-68
2021/03/14 04:54:04;;;;;;;3.30;1.43;;;4.00;99.90;;;;;;5103071;28;20427;-68
2021/03/14 04:56:32;;;;;;;2.23;2.03;;;3.90;99.90;;;;;;5122093;28;20450;-67
2021/03/14 04:59:00;;;;;;;2.43;1.50;;;3.90;99.90;;;;;;5121672;28;20469;-67
2021/03/14 05:01:31;;;;;;;6.00;1.90;;;3.90;99.90;;;;;;5121161;28;20479;-67
2021/03/14 05:04:03;;;;;;;1.30;1.20;;;3.90;99.90;;;;;;5123057;28;20546;-68
2021/03/14 05:06:57;;;;;;;1.60;1.50;;;3.90;99.90;;;;;;5092137;28;20830;-70
2021/03/14 05:09:25;;;;;;;1.40;1.23;;;3.80;99.90;;;;;;5064618;28;20514;-67
2021/03/14 05:11:53;;;;;;;1.20;1.10;;;3.80;99.90;;;;;;5098624;28;20464;-68
2021/03/14 05:14:21;;;;;;;2.40;1.53;;;3.70;99.90;;;;;;5080860;28;20448;-69
2021/03/14 05:16:50;;;;;;;2.20;1.30;;;3.70;99.90;;;;;;5081632;28;20465;-70
2021/03/14 05:19:19;;;;;;;1.20;1.10;;;3.60;99.90;;;;;;5105875;28;20475;-68
2021/03/14 05:21:58;;;;;;;1.50;1.40;;;3.60;99.90;;;;;;5107092;28;20447;-66
2021/03/14 05:24:26;;;;;;;2.80;1.10;;;3.60;99.90;;;;;;5089775;28;20467;-68
2021/03/14 05:26:55;;;;;;;1.20;1.10;;;3.60;99.90;;;;;;5106490;28;20424;-66
2021/03/14 05:29:23;;;;;;;0.90;0.90;;;3.60;99.90;;;;;;5063648;28;20924;-71
2021/03/14 05:31:52;;;;;;;1.00;0.90;;;3.60;99.90;;;;;;5096523;28;20504;-70
2021/03/14 05:34:21;;;;;;;0.93;0.80;;;3.60;99.90;;;;;;5096806;28;20786;-66
2021/03/14 05:36:49;;;;;;;1.33;1.23;;;3.60;99.90;;;;;;5095662;28;20437;-69
2021/03/14 05:39:17;;;;;;;0.60;0.60;;;3.60;99.90;;;;;;5077528;28;20470;-71
2021/03/14 05:41:45;;;;;;;0.70;0.70;;;3.70;99.90;;;;;;5096434;28;20412;-70
2021/03/14 05:44:15;;;;;;;1.40;0.90;;;3.60;99.90;;;;;;5097811;28;20876;-68
2021/03/14 05:46:43;;;;;;;0.83;0.83;;;3.60;99.90;;;;;;5085934;28;20471;-68
2021/03/14 05:49:11;;;;;;;2.70;1.10;;;3.70;99.90;;;;;;5080366;28;20432;-69
2021/03/14 05:51:43;;;;;;;0.90;0.80;;;3.70;99.90;;;;;;5079444;28;20429;-68
2021/03/14 05:54:15;;;;;;;1.00;0.90;;;3.60;99.90;;;;;;5062042;28;20452;-69
2021/03/14 05:56:45;;;;;;;1.10;0.93;;;3.70;99.90;;;;;;5079703;28;20481;-68
2021/03/14 05:59:16;;;;;;;1.93;1.20;;;3.70;99.90;;;;;;5079245;28;20440;-68
2021/03/14 06:01:48;;;;;;;1.97;1.50;;;3.60;99.90;;;;;;5059269;28;20461;-69
2021/03/14 06:04:20;;;;;;;2.30;1.47;;;3.70;99.90;;;;;;5078069;28;20465;-68
2021/03/14 06:07:13;;;;;;;3.90;1.20;;;3.70;99.90;;;;;;5080196;28;20433;-67
2021/03/14 06:09:42;;;;;;;1.17;1.10;;;3.70;99.90;;;;;;5083358;28;20432;-68
2021/03/14 06:12:10;;;;;;;1.13;1.03;;;3.70;99.90;;;;;;5082741;28;20424;-68
2021/03/14 06:14:38;;;;;;;1.30;1.10;;;3.70;99.90;;;;;;5082239;28;20830;-68
2021/03/14 06:17:07;;;;;;;2.03;1.10;;;3.70;99.90;;;;;;5099133;28;20479;-68
2021/03/14 06:19:36;;;;;;;1.73;1.30;;;3.60;99.90;;;;;;5120575;28;20431;-68
2021/03/14 06:22:21;;;;;;;1.43;1.33;;;3.70;99.90;;;;;;5102741;28;20432;-67
2021/03/14 06:24:51;;;;;;;1.30;1.20;;;3.70;99.90;;;;;;5101450;28;20547;-67
2021/03/14 06:27:37;;;;;;;2.80;1.87;;;3.70;99.90;;;;;;5103121;28;20432;-68
2021/03/14 06:30:09;;;;;;;1.60;1.43;;;3.70;99.90;;;;;;5104552;28;20439;-68
2021/03/14 06:32:37;;;;;;;1.40;1.30;;;3.70;99.90;;;;;;5104568;28;20497;-67
2021/03/14 06:35:11;;;;;;;2.50;1.70;;;3.70;99.90;;;;;;5123499;28;20431;-67
2021/03/14 06:37:44;;;;;;;2.47;1.60;;;3.70;99.90;;;;;;5104266;28;20416;-68
2021/03/14 06:40:14;;;;;;;2.87;1.80;;;3.70;99.90;;;;;;5121892;28;20444;-70
2021/03/14 06:42:42;;;;;;;2.20;2.00;;;3.70;99.90;;;;;;5122089;28;20431;-68
2021/03/14 06:45:12;;;;;;;1.93;1.77;;;3.70;99.90;;;;;;5121317;28;20909;-72
2021/03/14 06:47:41;;;;;;;2.10;1.90;;;3.70;99.90;;;;;;5102640;28;20471;-71
2021/03/14 06:50:11;;;;;;;2.90;1.77;;;3.80;99.90;;;;;;5101489;28;20424;-68
2021/03/14 06:53:08;;;;;;;1.67;1.57;;;3.80;99.90;;;;;;5119182;28;20448;-69
2021/03/14 06:55:36;;;;;;;4.30;2.30;;;3.90;99.90;;;;;;5118192;28;20435;-67
2021/03/14 06:58:24;;;;;;;2.20;2.00;;;3.90;99.90;;;;;;5119326;28;20977;-68
2021/03/14 07:01:26;;;;;;;2.30;2.10;;;4.00;99.90;;;;;;5099809;28;20475;-68
2021/03/14 07:03:56;;;;;;;3.47;2.40;;;4.10;99.90;;;;;;5100124;28;20954;-68
2021/03/14 07:06:29;;;;;;;3.23;2.13;;;4.10;99.90;;;;;;5100536;28;20825;-70
2021/03/14 07:08:59;;;;;;;2.50;2.17;;;4.20;99.90;;;;;;5096120;28;20472;-69
2021/03/14 07:11:35;;;;;;;3.33;2.37;;;4.30;99.90;;;;;;5097966;28;20825;-71
2021/03/14 07:14:04;;;;;;;2.37;2.10;;;4.50;99.90;;;;;;5097829;28;20444;-70
2021/03/14 07:16:44;;;;;;;3.00;2.53;;;4.60;99.90;;;;;;5097110;28;20480;-69
2021/03/14 07:19:17;;;;;;;4.83;2.30;;;4.60;99.90;;;;;;5079109;28;20485;-68
2021/03/14 07:21:46;;;;;;;3.43;2.53;;;4.70;99.90;;;;;;5098922;28;20433;-69
2021/03/14 07:24:15;;;;;;;6.17;2.73;;;4.80;99.90;;;;;;5097973;28;20460;-69
2021/03/14 07:26:45;;;;;;;5.47;1.90;;;4.90;99.90;;;;;;5097493;28;20433;-69
2021/03/14 07:29:17;;;;;;;3.03;2.20;;;4.80;99.90;;;;;;5097324;28;20437;-68
2021/03/14 07:31:45;;;;;;;3.30;2.67;;;4.80;99.90;;;;;;5096851;28;20468;-72
2021/03/14 07:34:14;;;;;;;3.83;2.20;;;4.80;99.90;;;;;;5097143;28;20431;-70
2021/03/14 07:36:44;;;;;;;3.00;2.37;;;4.80;99.90;;;;;;5097524;28;20525;-70
2021/03/14 07:39:14;;;;;;;3.60;2.40;;;4.90;99.90;;;;;;5097452;28;20528;-70
2021/03/14 07:41:44;;;;;;;2.07;1.87;;;4.90;99.90;;;;;;5097777;28;20456;-72
2021/03/14 07:44:12;;;;;;;3.43;3.10;;;4.80;99.90;;;;;;5097629;28;20457;-69
2021/03/14 07:46:42;;;;;;;3.20;1.80;;;4.90;99.90;;;;;;5096124;28;20979;-70
2021/03/14 07:49:13;;;;;;;2.50;2.00;;;5.00;99.90;;;;;;5096886;28;20452;-71
2021/03/14 07:51:45;;;;;;;2.70;1.93;;;5.10;99.90;;;;;;5096975;28;20436;-72
2021/03/14 07:54:27;;;;;;;2.90;1.70;;;5.20;99.90;;;;;;5097314;28;20452;-69
2021/03/14 07:56:59;;;;;;;3.93;2.10;;;5.10;99.90;;;;;;5097303;28;20425;-70
2021/03/14 07:59:30;;;;;;;5.50;2.90;;;4.90;99.90;;;;;;5078667;28;20448;-71
2021/03/14 08:02:25;;;;;;;3.03;2.67;;;4.80;99.90;;;;;;5096594;28;20518;-72
2021/03/14 08:05:02;;;;;;;3.73;1.90;;;4.70;99.90;;;;;;5097028;28;20460;-70
2021/03/14 08:07:47;;;;;;;3.10;2.40;;;4.80;99.90;;;;;;5101135;28;20570;-69
2021/03/14 08:10:38;;;;;;;6.43;2.70;;;5.10;99.90;;;;;;5116181;28;20428;-70
2021/03/14 08:13:07;;;;;;;2.20;1.73;;;5.20;99.90;;;;;;5100339;28;20438;-71
2021/03/14 08:15:36;;;;;;;3.00;1.80;;;5.20;99.90;;;;;;5111515;28;20478;-72
2021/03/14 08:18:28;;;;;;;3.50;2.40;;;5.00;99.90;;;;;;5079682;28;20482;-72
2021/03/14 08:20:55;;;;;;;2.10;1.90;;;5.00;99.90;;;;;;5096571;28;20445;-69
2021/03/14 08:23:41;;;;;;;4.23;2.10;;;5.00;99.90;;;;;;5096955;28;20482;-69
2021/03/14 08:26:18;;;;;;;2.07;1.67;;;5.00;99.90;;;;;;5078481;28;20427;-69
2021/03/14 08:28:53;;;;;;;2.17;1.90;;;4.90;99.90;;;;;;5096996;28;21011;-69
2021/03/14 08:31:38;;;;;;;5.00;2.63;;;4.90;99.90;;;;;;5090445;28;20475;-70
2021/03/14 08:34:19;;;;;;;2.07;1.70;;;5.10;99.90;;;;;;5120685;28;20424;-69
2021/03/14 08:36:50;;;;;;;2.40;1.43;;;5.90;99.90;;;;;;5099942;28;20507;-67
2021/03/14 08:39:25;;;;;;;4.77;2.43;;;7.60;99.90;;;;;;5105365;28;20407;-69
2021/03/14 08:42:03;;;;;;;2.67;1.87;;;9.40;99.90;;;;;;5109011;28;20446;-67
2021/03/14 08:44:40;;;;;;;7.23;2.53;;;8.40;99.90;;;;;;5111204;28;20451;-68
2021/03/14 08:50:21;;;;;;;2.80;1.73;;;6.00;99.90;;;;;;5082278;28;20433;-69
2021/03/14 08:53:01;;;;;;;2.90;1.97;;;5.60;99.90;;;;;;5081101;28;20437;-69
2021/03/14 08:55:51;;;;;;;4.80;1.90;;;5.40;99.90;;;;;;5101899;28;20447;-69
2021/03/14 08:58:23;;;;;;;3.70;1.60;;;5.50;99.90;;;;;;5082396;28;20527;-69
2021/03/14 09:01:06;;;;;;;2.67;2.00;;;5.70;99.90;;;;;;5102752;28;20477;-69
2021/03/14 09:03:41;;;;;;;3.10;1.88;;;5.80;99.90;;;;;;5090785;28;20437;-68
2021/03/14 09:06:26;;;;;;;2.80;1.90;;;5.80;99.90;;;;;;5094570;28;20182;-72
2021/03/14 09:09:00;;;;;;;2.03;1.93;;;5.80;99.90;;;;;;5112237;28;20473;-69
2021/03/14 09:11:41;;;;;;;2.17;1.97;;;5.70;99.90;;;;;;5094581;28;20490;-69
2021/03/14 09:14:20;;;;;;;5.37;3.47;;;5.70;99.90;;;;;;5095250;28;20504;-72
2021/03/14 09:16:49;;;;;;;1.70;1.57;;;5.70;99.90;;;;;;5092559;28;20939;-68
2021/03/14 09:19:22;;;;;;;2.33;2.13;;;5.60;99.90;;;;;;5094517;28;20476;-69
2021/03/14 09:21:52;;;;;;;2.43;2.23;;;5.60;99.90;;;;;;5112751;28;20436;-69
2021/03/14 09:24:30;;;;;;;2.30;1.70;;;5.60;99.90;;;;;;5094454;28;20476;-68
2021/03/14 09:27:01;;;;;;;1.77;1.67;;;6.00;99.90;;;;;;5095237;28;20448;-68
2021/03/14 09:29:39;;;;;;;1.63;1.53;;;5.90;99.90;;;;;;5096096;28;20432;-68
2021/03/14 09:32:22;;;;;;;2.23;2.03;;;5.60;99.90;;;;;;5111272;28;20460;-68
2021/03/14 09:34:52;;;;;;;2.83;2.30;;;5.50;99.90;;;;;;5115417;28;20416;-69
2021/03/14 09:37:30;;;;;;;1.70;1.60;;;5.50;99.90;;;;;;5114077;28;20462;-68
2021/03/14 09:40:21;;;;;;;2.00;1.73;;;5.50;99.90;;;;;;5110540;28;20424;-69
2021/03/14 09:42:49;;;;;;;3.07;1.83;;;5.60;99.90;;;;;;5133074;28;20447;-70
2021/03/14 09:45:32;;;;;;;1.63;1.53;;;5.80;99.90;;;;;;5109918;28;20843;-70
2021/03/14 09:48:06;;;;;;;5.30;2.20;;;5.80;99.90;;;;;;5114995;28;20807;-69
2021/03/14 09:50:43;;;;;;;1.57;1.47;;;5.70;99.90;;;;;;5116669;28;20419;-67
2021/03/14 09:53:12;;;;;;;1.83;1.70;;;5.70;99.90;;;;;;5133837;28;20446;-69
2021/03/14 09:55:44;;;;;;;3.73;2.33;;;5.70;99.90;;;;;;5115748;28;20443;-71
2021/03/14 09:58:15;;;;;;;2.40;2.03;;;5.70;99.90;;;;;;5115262;28;20496;-70
2021/03/14 10:00:49;;;;;;;4.27;2.43;;;5.80;99.90;;;;;;5108180;28;20488;-70
2021/03/14 10:03:21;;;;;;;4.73;2.77;;;6.00;99.90;;;;;;5078621;28;20451;-71
2021/03/14 10:06:12;;;;;;;2.53;2.33;;;6.30;99.90;;;;;;5086203;28;20472;-68
2021/03/14 10:09:00;;;;;;;3.00;2.20;;;6.30;99.90;;;;;;5097964;28;20505;-71
2021/03/14 10:11:30;;;;;;;2.30;2.10;;;6.60;99.90;;;;;;5061887;28;20488;-70
2021/03/14 10:14:02;;;;;;;2.47;2.10;;;6.70;99.90;;;;;;5080909;28;20413;-70
2021/03/14 10:16:40;;;;;;;2.40;2.10;;;7.00;99.90;;;;;;5073834;28;20461;-69
2021/03/14 10:19:16;;;;;;;3.20;2.30;;;7.10;99.90;;;;;;5078933;28;20444;-69
2021/03/14 10:21:47;;;;;;;5.47;2.43;;;6.70;99.90;;;;;;5079945;28;20411;-70
2021/03/14 10:27:44;;;;;;;5.23;2.37;;;6.50;99.90;;;;;;5077235;28;20895;-72
2021/03/14 10:30:24;;;;;;;6.17;2.07;;;6.90;99.90;;;;;;5046729;28;20461;-71
2021/03/14 10:33:00;;;;;;;1.97;1.77;;;6.80;99.90;;;;;;5080728;28;20453;-70
2021/03/14 10:35:35;;;;;;;2.53;2.30;;;6.70;99.90;;;;;;5101664;28;20405;-70
2021/03/14 10:38:24;;;;;;;3.60;1.50;;;6.90;99.90;;;;;;5083652;28;20781;-69
2021/03/14 10:41:09;;;;;;;1.33;1.23;;;7.50;99.90;;;;;;5084490;28;20489;-70
2021/03/14 10:43:46;;;;;;;6.03;2.20;;;7.50;99.20;;;;;;5083142;28;20403;-69
2021/03/14 10:46:14;;;;;;;2.53;1.60;;;7.20;99.40;;;;;;5082254;28;20473;-70
2021/03/14 10:48:43;;;;;;;3.30;1.83;;;7.60;99.30;;;;;;5100986;28;20489;-70
2021/03/14 10:51:11;;;;;;;3.73;1.70;;;7.70;98.80;;;;;;5101354;28;20484;-70
2021/03/14 10:54:02;;;;;;;2.53;2.33;;;7.30;98.80;;;;;;5082922;28;20467;-70
2021/03/14 10:56:39;;;;;;;3.33;1.33;;;7.00;99.10;;;;;;5083128;28;20479;-70
2021/03/14 10:59:22;;;;;;;2.77;2.07;;;7.00;99.10;;;;;;5100383;28;20401;-70
2021/03/14 11:02:15;;;;;;;2.27;1.20;;;7.30;99.00;;;;;;5099356;28;20494;-69
2021/03/14 11:04:53;;;;;;;2.77;1.60;;;6.90;99.80;;;;;;5081310;28;20445;-72
2021/03/14 11:07:25;;;;;;;1.53;1.43;;;6.60;99.90;;;;;;5065098;28;20435;-70
2021/03/14 11:10:07;;;;;;;7.50;2.30;;;6.40;99.90;;;;;;5080805;28;20528;-71
2021/03/14 11:12:37;;;;;;;1.77;1.67;;;6.00;99.90;;;;;;5048227;28;20438;-69
2021/03/14 11:15:28;;;;;;;2.27;1.53;;;6.20;99.90;;;;;;5081120;28;20523;-69
2021/03/14 11:18:20;;;;;;;2.37;1.77;;;7.80;99.90;;;;;;5082443;28;20436;-73
2021/03/14 11:21:10;;;;;;;6.77;2.97;;;8.00;99.50;;;;;;5098181;28;20549;-70
2021/03/14 11:23:42;;;;;;;2.27;1.77;;;8.40;98.70;;;;;;5079965;28;20389;-70
2021/03/14 11:26:27;;;;;;;5.60;2.23;;;9.30;97.50;;;;;;5079423;28;20431;-68
2021/03/14 11:28:55;;;;;;;2.70;2.00;;;9.30;96.50;;;;;;5078665;28;20523;-69
2021/03/14 11:31:32;;;;;;;2.00;1.70;;;10.10;96.10;;;;;;5089441;28;20472;-70
2021/03/14 11:34:04;;;;;;;1.90;1.73;;;11.90;92.50;;;;;;5096955;28;20521;-69
2021/03/14 11:36:39;;;;;;;2.83;2.00;;;12.10;89.80;;;;;;5096899;28;20429;-74
2021/03/14 11:39:15;;;;;;;2.40;1.90;;;11.00;90.90;;;;;;5097198;28;20416;-70
2021/03/14 11:41:47;;;;;;;1.80;1.70;;;11.50;90.30;;;;;;5096727;28;20440;-69
2021/03/14 11:44:16;;;;;;;5.60;2.20;;;12.10;87.30;;;;;;5115125;28;20789;-69
2021/03/14 11:46:45;;;;;;;3.33;1.30;;;12.60;83.10;;;;;;5079404;28;20505;-70
2021/03/14 11:49:23;;;;;;;2.63;1.60;;;12.40;80.70;;;;;;5097149;28;20436;-69
2021/03/14 11:51:52;;;;;;;2.30;1.33;;;11.60;79.10;;;;;;5097455;28;20438;-70
2021/03/14 11:54:24;;;;;;;2.20;1.30;;;12.50;78.40;;;;;;5096509;28;20522;-69
2021/03/14 11:56:57;;;;;;;1.77;1.67;;;12.80;76.70;;;;;;5096059;28;20461;-69
2021/03/14 11:59:29;;;;;;;1.57;1.47;;;13.00;74.70;;;;;;5096644;28;20438;-71
2021/03/14 12:02:05;;;;;;;2.00;1.33;;;11.60;74.20;;;;;;5095671;28;20590;-69
2021/03/14 12:05:19;;;;;;;4.70;1.70;;;11.20;75.60;;;;;;5113832;28;20492;-69
2021/03/14 12:10:40;;;;;;;1.97;1.60;;;16.00;59.20;;;;;;5114072;28;20473;-72
2021/03/14 12:13:10;;;;;;;1.30;1.20;;;13.90;59.10;;;;;;5096026;28;20854;-71
2021/03/14 12:15:38;;;;;;;1.57;1.40;;;11.20;64.90;;;;;;5095191;28;20458;-70
2021/03/14 12:18:05;;;;;;;2.40;1.70;;;10.30;70.20;;;;;;5115960;28;20435;-70
2021/03/14 12:20:49;;;;;;;5.47;2.07;;;9.70;73.70;;;;;;5097480;28;20441;-70
2021/03/14 12:23:22;;;;;;;1.97;1.20;;;9.60;76.70;;;;;;5097722;28;20496;-69
2021/03/14 12:26:02;;;;;;;3.30;1.67;;;9.70;76.90;;;;;;5082748;28;20439;-70
2021/03/14 12:28:38;;;;;;;4.23;1.80;;;9.60;76.80;;;;;;5116307;28;20411;-70
2021/03/14 12:31:08;;;;;;;2.33;1.70;;;8.60;81.50;;;;;;5098482;28;20471;-70
2021/03/14 12:33:38;;;;;;;1.40;1.30;;;8.20;85.20;;;;;;5099710;28;20919;-70
2021/03/14 12:36:10;;;;;;;2.27;1.70;;;8.40;88.50;;;;;;5082760;28;20444;-70
2021/03/14 12:38:52;;;;;;;1.33;1.23;;;9.20;88.50;;;;;;5098516;28;20427;-71
2021/03/14 12:41:21;;;;;;;2.20;1.33;;;9.90;84.60;;;;;;5098412;28;20436;-70
2021/03/14 12:43:49;;;;;;;2.40;1.30;;;10.30;81.20;;;;;;5097610;28;20493;-69
2021/03/14 12:46:18;;;;;;;2.73;1.43;;;11.60;74.00;;;;;;5096282;28;20475;-70
2021/03/14 12:48:45;;;;;;;1.87;1.67;;;10.70;73.80;;;;;;5097457;28;20425;-70
2021/03/14 12:51:13;;;;;;;2.50;2.30;;;10.00;77.00;;;;;;5097120;28;20441;-69
2021/03/14 12:53:41;;;;;;;4.20;1.90;;;9.20;82.20;;;;;;5096916;28;20520;-70
2021/03/14 12:56:16;;;;;;;1.90;1.70;;;8.70;85.90;;;;;;5116949;28;20435;-70
2021/03/14 12:58:57;;;;;;;4.80;2.13;;;8.20;89.70;;;;;;5098442;28;20464;-69
2021/03/14 13:01:25;;;;;;;2.40;2.20;;;8.10;91.10;;;;;;5096924;28;20471;-70
2021/03/14 13:03:54;;;;;;;2.10;1.83;;;7.80;92.00;;;;;;5117157;28;20405;-70
2021/03/14 13:06:22;;;;;;;2.23;2.03;;;7.20;94.50;;;;;;5082834;28;20409;-70
2021/03/14 13:08:49;;;;;;;3.57;1.80;;;6.70;99.40;;;;;;5117801;28;20462;-70
2021/03/14 13:11:19;;;;;;;3.63;2.00;;;6.80;99.90;;;;;;5098560;28;20412;-70
2021/03/14 13:13:46;;;;;;;3.60;2.17;;;6.70;99.90;;;;;;5116859;28;20395;-70
2021/03/14 13:16:15;;;;;;;2.90;1.30;;;7.10;99.90;;;;;;5097487;28;20557;-71
2021/03/14 13:18:43;;;;;;;1.90;1.70;;;7.30;99.80;;;;;;5116313;28;20508;-69
2021/03/14 13:21:11;;;;;;;1.57;1.30;;;7.50;97.80;;;;;;5080528;28;20478;-69
2021/03/14 13:23:39;;;;;;;1.97;1.67;;;7.70;96.80;;;;;;5096591;28;20426;-70
2021/03/14 13:26:07;;;;;;;1.50;1.30;;;8.00;96.60;;;;;;5080667;28;20486;-69
2021/03/14 13:28:35;;;;;;;2.73;1.43;;;8.10;96.20;;;;;;5117483;28;20420;-70
2021/03/14 13:31:03;;;;;;;2.03;1.47;;;8.40;96.10;;;;;;5115469;28;20502;-69
2021/03/14 13:33:31;;;;;;;2.10;1.30;;;8.50;95.80;;;;;;5115811;28;20462;-69
2021/03/14 13:35:59;;;;;;;2.27;1.87;;;8.20;95.80;;;;;;5116217;28;20721;-69
2021/03/14 13:38:26;;;;;;;2.33;2.13;;;8.40;96.00;;;;;;5117573;28;20534;-70